<?xml version="1.0" encoding="UTF-8" standalone="no" ?>
<gpx xmlns="http://www.topografix.com/GPX/1/1" xmlns:xsi="http://www.w3.org/2001/XMLSchema-instance" xsi:schemaLocation="http://www.topografix.com/GPX/1/1 http://www.topografix.com/GPX/1/1/gpx.xsd" version="1.1" creator="VisuGPX - https://www.visugpx.com">
  <metadata>
    <name>Laplume Brimont</name>
  </metadata>
  <trk>
    <name><![CDATA[2021 10 21 Laplume Brimont]]></name>
    <extensions>
      <line xmlns="http://www.topografix.com/GPX/gpx_style/0/2">
        <color>002aff</color>
        <width>4</width>
      </line>
    </extensions>
    <trkseg>
      <trkpt lat="44.10611" lon="0.57308">
        <ele>163.2</ele>
        <time>2021-10-21T12:25:22.000Z</time>
      </trkpt>
      <trkpt lat="44.10588" lon="0.57265">
        <ele>160.4</ele>
      </trkpt>
      <trkpt lat="44.10596" lon="0.57216">
        <ele>161.4</ele>
        <time>2021-10-21T12:25:30.000Z</time>
      </trkpt>
      <trkpt lat="44.1062" lon="0.57152">
        <ele>162.8</ele>
        <time>2021-10-21T12:25:46.000Z</time>
      </trkpt>
      <trkpt lat="44.10621" lon="0.57149">
        <ele>162.8</ele>
        <time>2021-10-21T12:25:58.008Z</time>
      </trkpt>
      <trkpt lat="44.10626" lon="0.57135">
        <ele>162.8</ele>
        <time>2021-10-21T12:26:14.008Z</time>
      </trkpt>
      <trkpt lat="44.1063" lon="0.57114">
        <ele>162.3</ele>
        <time>2021-10-21T12:26:30.008Z</time>
      </trkpt>
      <trkpt lat="44.10634" lon="0.57097">
        <ele>161.9</ele>
        <time>2021-10-21T12:26:42.008Z</time>
      </trkpt>
      <trkpt lat="44.10638" lon="0.5709">
        <ele>161.6</ele>
        <time>2021-10-21T12:26:50.008Z</time>
      </trkpt>
      <trkpt lat="44.10648" lon="0.57039">
        <ele>159.5</ele>
        <time>2021-10-21T12:27:22.008Z</time>
      </trkpt>
      <trkpt lat="44.10655" lon="0.57018">
        <ele>158.1</ele>
        <time>2021-10-21T12:27:38.008Z</time>
      </trkpt>
      <trkpt lat="44.10657" lon="0.57015">
        <ele>157.8</ele>
        <time>2021-10-21T12:27:40.008Z</time>
      </trkpt>
      <trkpt lat="44.10663" lon="0.56981">
        <ele>155.7</ele>
        <time>2021-10-21T12:28:04.008Z</time>
      </trkpt>
      <trkpt lat="44.10666" lon="0.56957">
        <ele>154.5</ele>
        <time>2021-10-21T12:28:20.008Z</time>
      </trkpt>
      <trkpt lat="44.10667" lon="0.56935">
        <ele>153.7</ele>
        <time>2021-10-21T12:28:36.008Z</time>
      </trkpt>
      <trkpt lat="44.10666" lon="0.5691">
        <ele>152.9</ele>
        <time>2021-10-21T12:28:52.008Z</time>
      </trkpt>
      <trkpt lat="44.10671" lon="0.5689">
        <ele>152.1</ele>
        <time>2021-10-21T12:29:04.008Z</time>
      </trkpt>
      <trkpt lat="44.1069" lon="0.56857">
        <ele>149.8</ele>
        <time>2021-10-21T12:29:28.008Z</time>
      </trkpt>
      <trkpt lat="44.10688" lon="0.56842">
        <ele>149.3</ele>
        <time>2021-10-21T12:29:36.008Z</time>
      </trkpt>
      <trkpt lat="44.1069" lon="0.56834">
        <ele>148.8</ele>
        <time>2021-10-21T12:29:40.008Z</time>
      </trkpt>
      <trkpt lat="44.10709" lon="0.56803">
        <ele>147</ele>
        <time>2021-10-21T12:30:04.008Z</time>
      </trkpt>
      <trkpt lat="44.10716" lon="0.56795">
        <ele>146.2</ele>
        <time>2021-10-21T12:30:12.008Z</time>
      </trkpt>
      <trkpt lat="44.10747" lon="0.5677">
        <ele>142.6</ele>
        <time>2021-10-21T12:30:44.008Z</time>
      </trkpt>
      <trkpt lat="44.1075" lon="0.56766">
        <ele>142.2</ele>
        <time>2021-10-21T12:30:48.008Z</time>
      </trkpt>
      <trkpt lat="44.10754" lon="0.56765">
        <ele>142</ele>
        <time>2021-10-21T12:30:52.008Z</time>
      </trkpt>
      <trkpt lat="44.10783" lon="0.56726">
        <ele>139.3</ele>
        <time>2021-10-21T12:31:24.008Z</time>
      </trkpt>
      <trkpt lat="44.10801" lon="0.56708">
        <ele>137.4</ele>
        <time>2021-10-21T12:31:40.008Z</time>
      </trkpt>
      <trkpt lat="44.10808" lon="0.56699">
        <ele>136.5</ele>
        <time>2021-10-21T12:31:48.008Z</time>
      </trkpt>
      <trkpt lat="44.10816" lon="0.56692">
        <ele>135.6</ele>
        <time>2021-10-21T12:31:56.008Z</time>
      </trkpt>
      <trkpt lat="44.10828" lon="0.56673">
        <ele>133.8</ele>
        <time>2021-10-21T12:32:12.008Z</time>
      </trkpt>
      <trkpt lat="44.10843" lon="0.56656">
        <ele>132.6</ele>
        <time>2021-10-21T12:32:28.008Z</time>
      </trkpt>
      <trkpt lat="44.10857" lon="0.56638">
        <ele>131.9</ele>
        <time>2021-10-21T12:32:44.008Z</time>
      </trkpt>
      <trkpt lat="44.10872" lon="0.56621">
        <ele>131.1</ele>
        <time>2021-10-21T12:33:00.008Z</time>
      </trkpt>
      <trkpt lat="44.10878" lon="0.56612">
        <ele>130.7</ele>
        <time>2021-10-21T12:33:08.008Z</time>
      </trkpt>
      <trkpt lat="44.1088" lon="0.56606">
        <ele>130.5</ele>
        <time>2021-10-21T12:33:12.008Z</time>
      </trkpt>
      <trkpt lat="44.10879" lon="0.566">
        <ele>130.5</ele>
        <time>2021-10-21T12:33:16.008Z</time>
      </trkpt>
      <trkpt lat="44.10874" lon="0.56591">
        <ele>130.7</ele>
        <time>2021-10-21T12:33:24.008Z</time>
      </trkpt>
      <trkpt lat="44.10873" lon="0.56584">
        <ele>130.6</ele>
        <time>2021-10-21T12:33:28.008Z</time>
      </trkpt>
      <trkpt lat="44.10874" lon="0.56578">
        <ele>130.5</ele>
        <time>2021-10-21T12:33:32.008Z</time>
      </trkpt>
      <trkpt lat="44.10885" lon="0.56556">
        <ele>129.4</ele>
        <time>2021-10-21T12:33:48.008Z</time>
      </trkpt>
      <trkpt lat="44.10897" lon="0.56535">
        <ele>128.1</ele>
        <time>2021-10-21T12:34:04.008Z</time>
      </trkpt>
      <trkpt lat="44.10927" lon="0.565">
        <ele>125.4</ele>
        <time>2021-10-21T12:34:36.008Z</time>
      </trkpt>
      <trkpt lat="44.10933" lon="0.5649">
        <ele>124.8</ele>
        <time>2021-10-21T12:34:44.008Z</time>
      </trkpt>
      <trkpt lat="44.1094" lon="0.56468">
        <ele>123.8</ele>
        <time>2021-10-21T12:35:00.008Z</time>
      </trkpt>
      <trkpt lat="44.10953" lon="0.5645">
        <ele>122.6</ele>
        <time>2021-10-21T12:35:16.008Z</time>
      </trkpt>
      <trkpt lat="44.10956" lon="0.56445">
        <ele>122.3</ele>
        <time>2021-10-21T12:35:20.008Z</time>
      </trkpt>
      <trkpt lat="44.10956" lon="0.56439">
        <ele>122.2</ele>
        <time>2021-10-21T12:35:24.008Z</time>
      </trkpt>
      <trkpt lat="44.10951" lon="0.56423">
        <ele>122.1</ele>
        <time>2021-10-21T12:35:36.008Z</time>
      </trkpt>
      <trkpt lat="44.10952" lon="0.56412">
        <ele>121.8</ele>
        <time>2021-10-21T12:35:44.008Z</time>
      </trkpt>
      <trkpt lat="44.10958" lon="0.56393">
        <ele>121.1</ele>
        <time>2021-10-21T12:35:56.008Z</time>
      </trkpt>
      <trkpt lat="44.10958" lon="0.56387">
        <ele>121</ele>
        <time>2021-10-21T12:36:00.008Z</time>
      </trkpt>
      <trkpt lat="44.10954" lon="0.56376">
        <ele>121</ele>
        <time>2021-10-21T12:36:08.008Z</time>
      </trkpt>
      <trkpt lat="44.10947" lon="0.56368">
        <ele>121.2</ele>
        <time>2021-10-21T12:36:16.008Z</time>
      </trkpt>
      <trkpt lat="44.10942" lon="0.56356">
        <ele>121.3</ele>
        <time>2021-10-21T12:36:24.008Z</time>
      </trkpt>
      <trkpt lat="44.10938" lon="0.56346">
        <ele>121.2</ele>
        <time>2021-10-21T12:36:32.008Z</time>
      </trkpt>
      <trkpt lat="44.10935" lon="0.56318">
        <ele>120.9</ele>
        <time>2021-10-21T12:36:48.008Z</time>
      </trkpt>
      <trkpt lat="44.1093" lon="0.56303">
        <ele>120.8</ele>
        <time>2021-10-21T12:36:56.008Z</time>
      </trkpt>
      <trkpt lat="44.10923" lon="0.56291">
        <ele>120.8</ele>
        <time>2021-10-21T12:37:04.008Z</time>
      </trkpt>
      <trkpt lat="44.10919" lon="0.56286">
        <ele>120.8</ele>
        <time>2021-10-21T12:37:08.008Z</time>
      </trkpt>
      <trkpt lat="44.10913" lon="0.56283">
        <ele>121</ele>
        <time>2021-10-21T12:37:12.008Z</time>
      </trkpt>
      <trkpt lat="44.10904" lon="0.56274">
        <ele>121.2</ele>
        <time>2021-10-21T12:37:20.008Z</time>
      </trkpt>
      <trkpt lat="44.10884" lon="0.56235">
        <ele>121.1</ele>
        <time>2021-10-21T12:37:36.008Z</time>
      </trkpt>
      <trkpt lat="44.10869" lon="0.5621">
        <ele>121.4</ele>
        <time>2021-10-21T12:37:52.008Z</time>
      </trkpt>
      <trkpt lat="44.10862" lon="0.56196">
        <ele>121.5</ele>
        <time>2021-10-21T12:38:00.008Z</time>
      </trkpt>
      <trkpt lat="44.10854" lon="0.56184">
        <ele>121.7</ele>
        <time>2021-10-21T12:38:08.008Z</time>
      </trkpt>
      <trkpt lat="44.10841" lon="0.56171">
        <ele>121.9</ele>
        <time>2021-10-21T12:38:24.008Z</time>
      </trkpt>
      <trkpt lat="44.10842" lon="0.56168">
        <ele>121.8</ele>
        <time>2021-10-21T12:38:28.012Z</time>
      </trkpt>
      <trkpt lat="44.1085" lon="0.5616">
        <ele>121.5</ele>
        <time>2021-10-21T12:38:36.012Z</time>
      </trkpt>
      <trkpt lat="44.10855" lon="0.56157">
        <ele>121.4</ele>
        <time>2021-10-21T12:38:40.012Z</time>
      </trkpt>
      <trkpt lat="44.10866" lon="0.56153">
        <ele>121</ele>
        <time>2021-10-21T12:38:48.012Z</time>
      </trkpt>
      <trkpt lat="44.10872" lon="0.56154">
        <ele>120.9</ele>
        <time>2021-10-21T12:38:52.012Z</time>
      </trkpt>
      <trkpt lat="44.10895" lon="0.5617">
        <ele>120.5</ele>
        <time>2021-10-21T12:39:08.012Z</time>
      </trkpt>
      <trkpt lat="44.10909" lon="0.56178">
        <ele>120.2</ele>
        <time>2021-10-21T12:39:24.020Z</time>
      </trkpt>
      <trkpt lat="44.10944" lon="0.56208">
        <ele>119.7</ele>
        <time>2021-10-21T12:39:56.020Z</time>
      </trkpt>
      <trkpt lat="44.10968" lon="0.56232">
        <ele>119.4</ele>
        <time>2021-10-21T12:40:20.020Z</time>
      </trkpt>
      <trkpt lat="44.10996" lon="0.56256">
        <ele>119</ele>
        <time>2021-10-21T12:40:44.020Z</time>
      </trkpt>
      <trkpt lat="44.11001" lon="0.56259">
        <ele>118.9</ele>
        <time>2021-10-21T12:40:48.020Z</time>
      </trkpt>
      <trkpt lat="44.11009" lon="0.56267">
        <ele>118.8</ele>
        <time>2021-10-21T12:40:56.020Z</time>
      </trkpt>
      <trkpt lat="44.11022" lon="0.56281">
        <ele>118.5</ele>
        <time>2021-10-21T12:41:08.020Z</time>
      </trkpt>
      <trkpt lat="44.11032" lon="0.56286">
        <ele>118.4</ele>
        <time>2021-10-21T12:41:16.020Z</time>
      </trkpt>
      <trkpt lat="44.11052" lon="0.563">
        <ele>118</ele>
        <time>2021-10-21T12:41:32.020Z</time>
      </trkpt>
      <trkpt lat="44.11056" lon="0.56302">
        <ele>118</ele>
        <time>2021-10-21T12:41:36.020Z</time>
      </trkpt>
      <trkpt lat="44.11074" lon="0.56316">
        <ele>117.5</ele>
        <time>2021-10-21T12:41:52.020Z</time>
      </trkpt>
      <trkpt lat="44.1109" lon="0.56322">
        <ele>117.8</ele>
        <time>2021-10-21T12:42:04.020Z</time>
      </trkpt>
      <trkpt lat="44.11112" lon="0.56326">
        <ele>119.3</ele>
        <time>2021-10-21T12:42:20.020Z</time>
      </trkpt>
      <trkpt lat="44.11118" lon="0.56326">
        <ele>119.8</ele>
        <time>2021-10-21T12:42:24.020Z</time>
      </trkpt>
      <trkpt lat="44.11126" lon="0.5633">
        <ele>120.2</ele>
        <time>2021-10-21T12:42:32.020Z</time>
      </trkpt>
      <trkpt lat="44.11135" lon="0.56331">
        <ele>120.8</ele>
        <time>2021-10-21T12:42:40.020Z</time>
      </trkpt>
      <trkpt lat="44.11144" lon="0.56331">
        <ele>121.5</ele>
        <time>2021-10-21T12:42:48.020Z</time>
      </trkpt>
      <trkpt lat="44.11154" lon="0.56332">
        <ele>122.1</ele>
        <time>2021-10-21T12:42:56.020Z</time>
      </trkpt>
      <trkpt lat="44.11163" lon="0.56335">
        <ele>122.7</ele>
        <time>2021-10-21T12:43:04.020Z</time>
      </trkpt>
      <trkpt lat="44.11167" lon="0.56335">
        <ele>123</ele>
        <time>2021-10-21T12:43:08.020Z</time>
      </trkpt>
      <trkpt lat="44.11176" lon="0.56336">
        <ele>123.4</ele>
        <time>2021-10-21T12:43:16.020Z</time>
      </trkpt>
      <trkpt lat="44.11196" lon="0.56336">
        <ele>124.7</ele>
        <time>2021-10-21T12:43:36.020Z</time>
      </trkpt>
      <trkpt lat="44.112" lon="0.56333">
        <ele>125</ele>
        <time>2021-10-21T12:43:40.020Z</time>
      </trkpt>
      <trkpt lat="44.11214" lon="0.56319">
        <ele>126.8</ele>
        <time>2021-10-21T12:43:56.020Z</time>
      </trkpt>
      <trkpt lat="44.11227" lon="0.56304">
        <ele>128.6</ele>
        <time>2021-10-21T12:44:12.020Z</time>
      </trkpt>
      <trkpt lat="44.11232" lon="0.56302">
        <ele>129.1</ele>
        <time>2021-10-21T12:44:16.020Z</time>
      </trkpt>
      <trkpt lat="44.11238" lon="0.56294">
        <ele>130</ele>
        <time>2021-10-21T12:44:28.020Z</time>
      </trkpt>
      <trkpt lat="44.11244" lon="0.56289">
        <ele>130.8</ele>
        <time>2021-10-21T12:44:36.020Z</time>
      </trkpt>
      <trkpt lat="44.1125" lon="0.56281">
        <ele>131.8</ele>
        <time>2021-10-21T12:44:44.020Z</time>
      </trkpt>
      <trkpt lat="44.11255" lon="0.56273">
        <ele>132.6</ele>
        <time>2021-10-21T12:44:52.020Z</time>
      </trkpt>
      <trkpt lat="44.11275" lon="0.56252">
        <ele>135.1</ele>
        <time>2021-10-21T12:45:16.020Z</time>
      </trkpt>
      <trkpt lat="44.11289" lon="0.56242">
        <ele>136.6</ele>
        <time>2021-10-21T12:45:32.020Z</time>
      </trkpt>
      <trkpt lat="44.11296" lon="0.56235">
        <ele>137.5</ele>
        <time>2021-10-21T12:45:40.020Z</time>
      </trkpt>
      <trkpt lat="44.11326" lon="0.56214">
        <ele>140.7</ele>
        <time>2021-10-21T12:46:12.020Z</time>
      </trkpt>
      <trkpt lat="44.11348" lon="0.56197">
        <ele>143.1</ele>
        <time>2021-10-21T12:46:36.020Z</time>
      </trkpt>
      <trkpt lat="44.11363" lon="0.56189">
        <ele>144.4</ele>
        <time>2021-10-21T12:46:52.020Z</time>
      </trkpt>
      <trkpt lat="44.11371" lon="0.56187">
        <ele>144.8</ele>
        <time>2021-10-21T12:47:00.020Z</time>
      </trkpt>
      <trkpt lat="44.11379" lon="0.56188">
        <ele>145.1</ele>
        <time>2021-10-21T12:47:08.020Z</time>
      </trkpt>
      <trkpt lat="44.11386" lon="0.56186">
        <ele>145.6</ele>
        <time>2021-10-21T12:47:16.020Z</time>
      </trkpt>
      <trkpt lat="44.11395" lon="0.56188">
        <ele>145.8</ele>
        <time>2021-10-21T12:47:32.020Z</time>
      </trkpt>
      <trkpt lat="44.11407" lon="0.56186">
        <ele>146.4</ele>
        <time>2021-10-21T12:47:48.020Z</time>
      </trkpt>
      <trkpt lat="44.11431" lon="0.56176">
        <ele>148.2</ele>
        <time>2021-10-21T12:48:12.020Z</time>
      </trkpt>
      <trkpt lat="44.1144" lon="0.56174">
        <ele>148.7</ele>
        <time>2021-10-21T12:48:20.020Z</time>
      </trkpt>
      <trkpt lat="44.1147" lon="0.56164">
        <ele>150.8</ele>
        <time>2021-10-21T12:48:52.020Z</time>
      </trkpt>
      <trkpt lat="44.11486" lon="0.56162">
        <ele>151.7</ele>
        <time>2021-10-21T12:49:08.020Z</time>
      </trkpt>
      <trkpt lat="44.11496" lon="0.56159">
        <ele>152.5</ele>
        <time>2021-10-21T12:49:18.020Z</time>
      </trkpt>
      <trkpt lat="44.11509" lon="0.56157">
        <ele>154</ele>
        <time>2021-10-21T12:49:34.020Z</time>
      </trkpt>
      <trkpt lat="44.11517" lon="0.56155">
        <ele>155.1</ele>
        <time>2021-10-21T12:49:48.020Z</time>
      </trkpt>
      <trkpt lat="44.11534" lon="0.56153">
        <ele>157.4</ele>
        <time>2021-10-21T12:50:04.020Z</time>
      </trkpt>
      <trkpt lat="44.1154" lon="0.56151">
        <ele>158.4</ele>
        <time>2021-10-21T12:50:12.020Z</time>
      </trkpt>
      <trkpt lat="44.11545" lon="0.56155">
        <ele>158.6</ele>
        <time>2021-10-21T12:50:16.020Z</time>
      </trkpt>
      <trkpt lat="44.11549" lon="0.56174">
        <ele>158.2</ele>
        <time>2021-10-21T12:50:28.020Z</time>
      </trkpt>
      <trkpt lat="44.1155" lon="0.5618">
        <ele>158.1</ele>
        <time>2021-10-21T12:50:32.020Z</time>
      </trkpt>
      <trkpt lat="44.11553" lon="0.56193">
        <ele>158</ele>
        <time>2021-10-21T12:50:40.020Z</time>
      </trkpt>
      <trkpt lat="44.11568" lon="0.56324">
        <ele>157</ele>
        <time>2021-10-21T12:52:00.020Z</time>
      </trkpt>
      <trkpt lat="44.1157" lon="0.56378">
        <ele>155.2</ele>
        <time>2021-10-21T12:52:36.020Z</time>
      </trkpt>
      <trkpt lat="44.1157" lon="0.56387">
        <ele>154.7</ele>
        <time>2021-10-21T12:52:46.020Z</time>
      </trkpt>
      <trkpt lat="44.11573" lon="0.56399">
        <ele>154.4</ele>
        <time>2021-10-21T12:52:54.020Z</time>
      </trkpt>
      <trkpt lat="44.11573" lon="0.56423">
        <ele>153.2</ele>
        <time>2021-10-21T12:53:10.020Z</time>
      </trkpt>
      <trkpt lat="44.11575" lon="0.56446">
        <ele>151.7</ele>
        <time>2021-10-21T12:53:26.020Z</time>
      </trkpt>
      <trkpt lat="44.11575" lon="0.56468">
        <ele>150.2</ele>
        <time>2021-10-21T12:53:42.020Z</time>
      </trkpt>
      <trkpt lat="44.11578" lon="0.56483">
        <ele>149.2</ele>
        <time>2021-10-21T12:53:50.020Z</time>
      </trkpt>
      <trkpt lat="44.11591" lon="0.56536">
        <ele>146.4</ele>
        <time>2021-10-21T12:54:22.020Z</time>
      </trkpt>
      <trkpt lat="44.11599" lon="0.56563">
        <ele>145</ele>
        <time>2021-10-21T12:54:38.020Z</time>
      </trkpt>
      <trkpt lat="44.11609" lon="0.56608">
        <ele>142</ele>
        <time>2021-10-21T12:55:06.020Z</time>
      </trkpt>
      <trkpt lat="44.11608" lon="0.56663">
        <ele>138.1</ele>
        <time>2021-10-21T12:55:38.020Z</time>
      </trkpt>
      <trkpt lat="44.11607" lon="0.56671">
        <ele>137.6</ele>
        <time>2021-10-21T12:55:42.020Z</time>
      </trkpt>
      <trkpt lat="44.11601" lon="0.56684">
        <ele>136.8</ele>
        <time>2021-10-21T12:55:50.020Z</time>
      </trkpt>
      <trkpt lat="44.11593" lon="0.56713">
        <ele>134.8</ele>
        <time>2021-10-21T12:56:06.020Z</time>
      </trkpt>
      <trkpt lat="44.11589" lon="0.56742">
        <ele>132.6</ele>
        <time>2021-10-21T12:56:22.020Z</time>
      </trkpt>
      <trkpt lat="44.11589" lon="0.56801">
        <ele>128.9</ele>
        <time>2021-10-21T12:56:54.020Z</time>
      </trkpt>
      <trkpt lat="44.11581" lon="0.5686">
        <ele>125</ele>
        <time>2021-10-21T12:57:26.020Z</time>
      </trkpt>
      <trkpt lat="44.11581" lon="0.56875">
        <ele>123.9</ele>
        <time>2021-10-21T12:57:34.020Z</time>
      </trkpt>
      <trkpt lat="44.11575" lon="0.5693">
        <ele>119.6</ele>
        <time>2021-10-21T12:58:06.020Z</time>
      </trkpt>
      <trkpt lat="44.11574" lon="0.56957">
        <ele>117.6</ele>
        <time>2021-10-21T12:58:22.020Z</time>
      </trkpt>
      <trkpt lat="44.11571" lon="0.56984">
        <ele>115.6</ele>
        <time>2021-10-21T12:58:38.020Z</time>
      </trkpt>
      <trkpt lat="44.11569" lon="0.57024">
        <ele>114.2</ele>
        <time>2021-10-21T12:59:02.020Z</time>
      </trkpt>
      <trkpt lat="44.11566" lon="0.57041">
        <ele>114</ele>
        <time>2021-10-21T12:59:10.020Z</time>
      </trkpt>
      <trkpt lat="44.11562" lon="0.57056">
        <ele>113.7</ele>
        <time>2021-10-21T12:59:18.020Z</time>
      </trkpt>
      <trkpt lat="44.1156" lon="0.57069">
        <ele>113.6</ele>
        <time>2021-10-21T12:59:26.020Z</time>
      </trkpt>
      <trkpt lat="44.11562" lon="0.57091">
        <ele>113.4</ele>
        <time>2021-10-21T12:59:42.020Z</time>
      </trkpt>
      <trkpt lat="44.11563" lon="0.57119">
        <ele>113</ele>
        <time>2021-10-21T12:59:58.020Z</time>
      </trkpt>
      <trkpt lat="44.11564" lon="0.57134">
        <ele>112.7</ele>
        <time>2021-10-21T13:00:06.020Z</time>
      </trkpt>
      <trkpt lat="44.1157" lon="0.57158">
        <ele>112.3</ele>
        <time>2021-10-21T13:00:22.020Z</time>
      </trkpt>
      <trkpt lat="44.11576" lon="0.5717">
        <ele>112.1</ele>
        <time>2021-10-21T13:00:30.020Z</time>
      </trkpt>
      <trkpt lat="44.1158" lon="0.57183">
        <ele>111.9</ele>
        <time>2021-10-21T13:00:38.020Z</time>
      </trkpt>
      <trkpt lat="44.11594" lon="0.57212">
        <ele>111.8</ele>
        <time>2021-10-21T13:00:58.020Z</time>
      </trkpt>
      <trkpt lat="44.11598" lon="0.57226">
        <ele>111.7</ele>
        <time>2021-10-21T13:01:06.020Z</time>
      </trkpt>
      <trkpt lat="44.11596" lon="0.57268">
        <ele>111.2</ele>
        <time>2021-10-21T13:01:46.032Z</time>
      </trkpt>
      <trkpt lat="44.11598" lon="0.57281">
        <ele>111.2</ele>
        <time>2021-10-21T13:01:54.032Z</time>
      </trkpt>
      <trkpt lat="44.11594" lon="0.57377">
        <ele>111.3</ele>
        <time>2021-10-21T13:02:50.032Z</time>
      </trkpt>
      <trkpt lat="44.11596" lon="0.57405">
        <ele>111.6</ele>
        <time>2021-10-21T13:03:06.032Z</time>
      </trkpt>
      <trkpt lat="44.11598" lon="0.57425">
        <ele>111.9</ele>
        <time>2021-10-21T13:03:18.032Z</time>
      </trkpt>
      <trkpt lat="44.11596" lon="0.57437">
        <ele>112.4</ele>
        <time>2021-10-21T13:03:26.032Z</time>
      </trkpt>
      <trkpt lat="44.11592" lon="0.57445">
        <ele>112.8</ele>
        <time>2021-10-21T13:03:42.032Z</time>
      </trkpt>
      <trkpt lat="44.11588" lon="0.57448">
        <ele>113</ele>
        <time>2021-10-21T13:03:46.032Z</time>
      </trkpt>
      <trkpt lat="44.11588" lon="0.57454">
        <ele>113.2</ele>
        <time>2021-10-21T13:03:50.032Z</time>
      </trkpt>
      <trkpt lat="44.11586" lon="0.5746">
        <ele>113.5</ele>
        <time>2021-10-21T13:03:54.032Z</time>
      </trkpt>
      <trkpt lat="44.11554" lon="0.57489">
        <ele>118.9</ele>
        <time>2021-10-21T13:04:26.032Z</time>
      </trkpt>
      <trkpt lat="44.11515" lon="0.5753">
        <ele>125.1</ele>
        <time>2021-10-21T13:05:18.044Z</time>
      </trkpt>
      <trkpt lat="44.11512" lon="0.57531">
        <ele>125.4</ele>
        <time>2021-10-21T13:05:26.044Z</time>
      </trkpt>
      <trkpt lat="44.11508" lon="0.57537">
        <ele>126</ele>
        <time>2021-10-21T13:05:34.044Z</time>
      </trkpt>
      <trkpt lat="44.11496" lon="0.57547">
        <ele>127.3</ele>
        <time>2021-10-21T13:05:50.060Z</time>
      </trkpt>
      <trkpt lat="44.11494" lon="0.57547">
        <ele>127.4</ele>
        <time>2021-10-21T13:05:54.060Z</time>
      </trkpt>
      <trkpt lat="44.11475" lon="0.57568">
        <ele>128.8</ele>
        <time>2021-10-21T13:06:18.060Z</time>
      </trkpt>
      <trkpt lat="44.11471" lon="0.57572">
        <ele>129.2</ele>
        <time>2021-10-21T13:06:32.060Z</time>
      </trkpt>
      <trkpt lat="44.11465" lon="0.57576">
        <ele>129.8</ele>
        <time>2021-10-21T13:06:40.060Z</time>
      </trkpt>
      <trkpt lat="44.11455" lon="0.57589">
        <ele>130.8</ele>
        <time>2021-10-21T13:07:50.096Z</time>
      </trkpt>
      <trkpt lat="44.11447" lon="0.57594">
        <ele>131.5</ele>
        <time>2021-10-21T13:08:10.096Z</time>
      </trkpt>
      <trkpt lat="44.11446" lon="0.57595">
        <ele>131.6</ele>
        <time>2021-10-21T13:08:18.096Z</time>
      </trkpt>
      <trkpt lat="44.11444" lon="0.57599">
        <ele>131.8</ele>
        <time>2021-10-21T13:08:22.104Z</time>
      </trkpt>
      <trkpt lat="44.11425" lon="0.57617">
        <ele>133.6</ele>
        <time>2021-10-21T13:08:50.104Z</time>
      </trkpt>
      <trkpt lat="44.11421" lon="0.57619">
        <ele>134</ele>
        <time>2021-10-21T13:09:04.116Z</time>
      </trkpt>
      <trkpt lat="44.11409" lon="0.57633">
        <ele>135.1</ele>
        <time>2021-10-21T13:09:20.116Z</time>
      </trkpt>
      <trkpt lat="44.11333" lon="0.57707">
        <ele>143.5</ele>
        <time>2021-10-21T13:10:40.116Z</time>
      </trkpt>
      <trkpt lat="44.11326" lon="0.57715">
        <ele>144.4</ele>
        <time>2021-10-21T13:10:48.116Z</time>
      </trkpt>
      <trkpt lat="44.11285" lon="0.57753">
        <ele>150.3</ele>
        <time>2021-10-21T13:11:28.116Z</time>
      </trkpt>
      <trkpt lat="44.11271" lon="0.5777">
        <ele>152.2</ele>
        <time>2021-10-21T13:11:44.116Z</time>
      </trkpt>
      <trkpt lat="44.11212" lon="0.57827">
        <ele>155.5</ele>
        <time>2021-10-21T13:12:48.116Z</time>
      </trkpt>
      <trkpt lat="44.1121" lon="0.57827">
        <ele>155.5</ele>
        <time>2021-10-21T13:12:56.116Z</time>
      </trkpt>
      <trkpt lat="44.11204" lon="0.57832">
        <ele>155.4</ele>
        <time>2021-10-21T13:13:04.116Z</time>
      </trkpt>
      <trkpt lat="44.11196" lon="0.57841">
        <ele>155.3</ele>
        <time>2021-10-21T13:13:12.116Z</time>
      </trkpt>
      <trkpt lat="44.11183" lon="0.57852">
        <ele>155</ele>
        <time>2021-10-21T13:13:28.116Z</time>
      </trkpt>
      <trkpt lat="44.11181" lon="0.57856">
        <ele>154.9</ele>
        <time>2021-10-21T13:13:32.116Z</time>
      </trkpt>
      <trkpt lat="44.11169" lon="0.57869">
        <ele>154.2</ele>
        <time>2021-10-21T13:13:52.116Z</time>
      </trkpt>
      <trkpt lat="44.1116" lon="0.57871">
        <ele>153.7</ele>
        <time>2021-10-21T13:17:09.031Z</time>
      </trkpt>
      <trkpt lat="44.11158" lon="0.57866">
        <ele>153.8</ele>
        <time>2021-10-21T13:18:33.063Z</time>
      </trkpt>
      <trkpt lat="44.11152" lon="0.57852">
        <ele>154</ele>
        <time>2021-10-21T13:18:49.063Z</time>
      </trkpt>
      <trkpt lat="44.11134" lon="0.57817">
        <ele>154.7</ele>
        <time>2021-10-21T13:19:21.063Z</time>
      </trkpt>
      <trkpt lat="44.11107" lon="0.57778">
        <ele>156.1</ele>
        <time>2021-10-21T13:19:53.063Z</time>
      </trkpt>
      <trkpt lat="44.11099" lon="0.5777">
        <ele>156.6</ele>
        <time>2021-10-21T13:20:01.063Z</time>
      </trkpt>
      <trkpt lat="44.11061" lon="0.57716">
        <ele>156.3</ele>
        <time>2021-10-21T13:20:49.063Z</time>
      </trkpt>
      <trkpt lat="44.11059" lon="0.57712">
        <ele>156.1</ele>
        <time>2021-10-21T13:20:53.063Z</time>
      </trkpt>
      <trkpt lat="44.11048" lon="0.57699">
        <ele>155.7</ele>
        <time>2021-10-21T13:21:09.063Z</time>
      </trkpt>
      <trkpt lat="44.11022" lon="0.57662">
        <ele>154.9</ele>
        <time>2021-10-21T13:21:41.063Z</time>
      </trkpt>
      <trkpt lat="44.11004" lon="0.57638">
        <ele>154.6</ele>
        <time>2021-10-21T13:22:01.063Z</time>
      </trkpt>
      <trkpt lat="44.10999" lon="0.57636">
        <ele>154.6</ele>
        <time>2021-10-21T13:22:05.063Z</time>
      </trkpt>
      <trkpt lat="44.10995" lon="0.57633">
        <ele>154.3</ele>
        <time>2021-10-21T13:22:09.063Z</time>
      </trkpt>
      <trkpt lat="44.10991" lon="0.5763">
        <ele>154</ele>
        <time>2021-10-21T13:22:13.063Z</time>
      </trkpt>
      <trkpt lat="44.10986" lon="0.57631">
        <ele>153.7</ele>
        <time>2021-10-21T13:22:17.063Z</time>
      </trkpt>
      <trkpt lat="44.10982" lon="0.57641">
        <ele>153.5</ele>
        <time>2021-10-21T13:22:33.067Z</time>
      </trkpt>
      <trkpt lat="44.10981" lon="0.57657">
        <ele>153.5</ele>
        <time>2021-10-21T13:25:04.005Z</time>
      </trkpt>
      <trkpt lat="44.10981" lon="0.57666">
        <ele>153.6</ele>
        <time>2021-10-21T13:25:10.005Z</time>
      </trkpt>
      <trkpt lat="44.1098" lon="0.57673">
        <ele>153.5</ele>
        <time>2021-10-21T13:25:14.005Z</time>
      </trkpt>
      <trkpt lat="44.10976" lon="0.57687">
        <ele>153.2</ele>
        <time>2021-10-21T13:25:22.005Z</time>
      </trkpt>
      <trkpt lat="44.10973" lon="0.57702">
        <ele>152.9</ele>
        <time>2021-10-21T13:25:30.005Z</time>
      </trkpt>
      <trkpt lat="44.10964" lon="0.57725">
        <ele>152.1</ele>
        <time>2021-10-21T13:25:46.005Z</time>
      </trkpt>
      <trkpt lat="44.10948" lon="0.5776">
        <ele>150.2</ele>
        <time>2021-10-21T13:26:10.005Z</time>
      </trkpt>
      <trkpt lat="44.10935" lon="0.57782">
        <ele>148.3</ele>
        <time>2021-10-21T13:26:26.005Z</time>
      </trkpt>
      <trkpt lat="44.10924" lon="0.57805">
        <ele>146.6</ele>
        <time>2021-10-21T13:26:42.005Z</time>
      </trkpt>
      <trkpt lat="44.10911" lon="0.57826">
        <ele>144.6</ele>
        <time>2021-10-21T13:26:58.005Z</time>
      </trkpt>
      <trkpt lat="44.10897" lon="0.57843">
        <ele>142.4</ele>
        <time>2021-10-21T13:27:14.005Z</time>
      </trkpt>
      <trkpt lat="44.10883" lon="0.57859">
        <ele>140.3</ele>
        <time>2021-10-21T13:27:30.005Z</time>
      </trkpt>
      <trkpt lat="44.10859" lon="0.57881">
        <ele>137.5</ele>
        <time>2021-10-21T13:27:54.005Z</time>
      </trkpt>
      <trkpt lat="44.10854" lon="0.57887">
        <ele>136.9</ele>
        <time>2021-10-21T13:28:02.005Z</time>
      </trkpt>
      <trkpt lat="44.10845" lon="0.57895">
        <ele>136.1</ele>
        <time>2021-10-21T13:28:10.005Z</time>
      </trkpt>
      <trkpt lat="44.10837" lon="0.57904">
        <ele>135.4</ele>
        <time>2021-10-21T13:28:18.005Z</time>
      </trkpt>
      <trkpt lat="44.10819" lon="0.5792">
        <ele>133.4</ele>
        <time>2021-10-21T13:28:34.005Z</time>
      </trkpt>
      <trkpt lat="44.10803" lon="0.57938">
        <ele>130.7</ele>
        <time>2021-10-21T13:28:50.005Z</time>
      </trkpt>
      <trkpt lat="44.10784" lon="0.57956">
        <ele>127.9</ele>
        <time>2021-10-21T13:29:06.005Z</time>
      </trkpt>
      <trkpt lat="44.10774" lon="0.57962">
        <ele>126.8</ele>
        <time>2021-10-21T13:29:14.005Z</time>
      </trkpt>
      <trkpt lat="44.10764" lon="0.57965">
        <ele>125.8</ele>
        <time>2021-10-21T13:29:22.005Z</time>
      </trkpt>
      <trkpt lat="44.10713" lon="0.57954">
        <ele>122.7</ele>
        <time>2021-10-21T13:30:02.005Z</time>
      </trkpt>
      <trkpt lat="44.10693" lon="0.57946">
        <ele>121.8</ele>
        <time>2021-10-21T13:30:18.005Z</time>
      </trkpt>
      <trkpt lat="44.10672" lon="0.5794">
        <ele>120.5</ele>
        <time>2021-10-21T13:30:34.005Z</time>
      </trkpt>
      <trkpt lat="44.1067" lon="0.57941">
        <ele>120.4</ele>
        <time>2021-10-21T13:30:36.005Z</time>
      </trkpt>
      <trkpt lat="44.1067" lon="0.57944">
        <ele>120.2</ele>
        <time>2021-10-21T13:30:38.005Z</time>
      </trkpt>
      <trkpt lat="44.1067" lon="0.57946">
        <ele>120.2</ele>
        <time>2021-10-21T13:30:40.005Z</time>
      </trkpt>
      <trkpt lat="44.10675" lon="0.5795">
        <ele>120.3</ele>
        <time>2021-10-21T13:30:44.005Z</time>
      </trkpt>
      <trkpt lat="44.10699" lon="0.57993">
        <ele>120.2</ele>
        <time>2021-10-21T13:31:16.005Z</time>
      </trkpt>
      <trkpt lat="44.10734" lon="0.58049">
        <ele>119.6</ele>
        <time>2021-10-21T13:31:56.005Z</time>
      </trkpt>
      <trkpt lat="44.10744" lon="0.58062">
        <ele>119.1</ele>
        <time>2021-10-21T13:32:08.005Z</time>
      </trkpt>
      <trkpt lat="44.10763" lon="0.58072">
        <ele>119.6</ele>
        <time>2021-10-21T13:32:24.005Z</time>
      </trkpt>
      <trkpt lat="44.10779" lon="0.58077">
        <ele>120.4</ele>
        <time>2021-10-21T13:32:36.005Z</time>
      </trkpt>
      <trkpt lat="44.10789" lon="0.58083">
        <ele>120.9</ele>
        <time>2021-10-21T13:32:44.005Z</time>
      </trkpt>
      <trkpt lat="44.10816" lon="0.58104">
        <ele>121.9</ele>
        <time>2021-10-21T13:33:08.005Z</time>
      </trkpt>
      <trkpt lat="44.10832" lon="0.58123">
        <ele>122</ele>
        <time>2021-10-21T13:33:24.005Z</time>
      </trkpt>
      <trkpt lat="44.10839" lon="0.58133">
        <ele>121.8</ele>
        <time>2021-10-21T13:33:32.005Z</time>
      </trkpt>
      <trkpt lat="44.10845" lon="0.58145">
        <ele>121.6</ele>
        <time>2021-10-21T13:33:40.005Z</time>
      </trkpt>
      <trkpt lat="44.10848" lon="0.58161">
        <ele>121</ele>
        <time>2021-10-21T13:33:48.005Z</time>
      </trkpt>
      <trkpt lat="44.10859" lon="0.58273">
        <ele>117.4</ele>
        <time>2021-10-21T13:34:52.005Z</time>
      </trkpt>
      <trkpt lat="44.10869" lon="0.58354">
        <ele>114.6</ele>
        <time>2021-10-21T13:35:40.005Z</time>
      </trkpt>
      <trkpt lat="44.10871" lon="0.58366">
        <ele>114.7</ele>
        <time>2021-10-21T13:35:48.005Z</time>
      </trkpt>
      <trkpt lat="44.10881" lon="0.58447">
        <ele>115.5</ele>
        <time>2021-10-21T13:36:36.005Z</time>
      </trkpt>
      <trkpt lat="44.10884" lon="0.5846">
        <ele>115.7</ele>
        <time>2021-10-21T13:36:44.005Z</time>
      </trkpt>
      <trkpt lat="44.10901" lon="0.58509">
        <ele>116.2</ele>
        <time>2021-10-21T13:37:16.005Z</time>
      </trkpt>
      <trkpt lat="44.10914" lon="0.58556">
        <ele>116.1</ele>
        <time>2021-10-21T13:37:48.005Z</time>
      </trkpt>
      <trkpt lat="44.10923" lon="0.58581">
        <ele>116</ele>
        <time>2021-10-21T13:38:04.005Z</time>
      </trkpt>
      <trkpt lat="44.10931" lon="0.58612">
        <ele>115.6</ele>
        <time>2021-10-21T13:38:24.005Z</time>
      </trkpt>
      <trkpt lat="44.10931" lon="0.58618">
        <ele>115.5</ele>
        <time>2021-10-21T13:38:28.005Z</time>
      </trkpt>
      <trkpt lat="44.10929" lon="0.58625">
        <ele>115.4</ele>
        <time>2021-10-21T13:38:32.005Z</time>
      </trkpt>
      <trkpt lat="44.10925" lon="0.58629">
        <ele>115.4</ele>
        <time>2021-10-21T13:38:36.005Z</time>
      </trkpt>
      <trkpt lat="44.10906" lon="0.5864">
        <ele>115.7</ele>
        <time>2021-10-21T13:38:52.005Z</time>
      </trkpt>
      <trkpt lat="44.10873" lon="0.58663">
        <ele>116.6</ele>
        <time>2021-10-21T13:39:24.005Z</time>
      </trkpt>
      <trkpt lat="44.10858" lon="0.58677">
        <ele>117.1</ele>
        <time>2021-10-21T13:39:40.005Z</time>
      </trkpt>
      <trkpt lat="44.10849" lon="0.58682">
        <ele>117.4</ele>
        <time>2021-10-21T13:39:52.005Z</time>
      </trkpt>
      <trkpt lat="44.10844" lon="0.58683">
        <ele>117.6</ele>
        <time>2021-10-21T13:40:00.005Z</time>
      </trkpt>
      <trkpt lat="44.10841" lon="0.58679">
        <ele>117.7</ele>
        <time>2021-10-21T13:40:08.005Z</time>
      </trkpt>
      <trkpt lat="44.10838" lon="0.58673">
        <ele>117.8</ele>
        <time>2021-10-21T13:40:16.001Z</time>
      </trkpt>
      <trkpt lat="44.10837" lon="0.58661">
        <ele>118</ele>
        <time>2021-10-21T13:40:24.001Z</time>
      </trkpt>
      <trkpt lat="44.10837" lon="0.58654">
        <ele>118</ele>
        <time>2021-10-21T13:40:28.001Z</time>
      </trkpt>
      <trkpt lat="44.10839" lon="0.58648">
        <ele>118</ele>
        <time>2021-10-21T13:40:32.001Z</time>
      </trkpt>
      <trkpt lat="44.10843" lon="0.58644">
        <ele>117.9</ele>
        <time>2021-10-21T13:40:40.001Z</time>
      </trkpt>
      <trkpt lat="44.10841" lon="0.58641">
        <ele>118</ele>
        <time>2021-10-21T13:40:48.012Z</time>
      </trkpt>
      <trkpt lat="44.10841" lon="0.58642">
        <ele>118</ele>
        <time>2021-10-21T13:40:56.023Z</time>
      </trkpt>
      <trkpt lat="44.10847" lon="0.5863">
        <ele>118</ele>
        <time>2021-10-21T13:41:04.027Z</time>
      </trkpt>
      <trkpt lat="44.10854" lon="0.58607">
        <ele>118</ele>
        <time>2021-10-21T13:41:20.027Z</time>
      </trkpt>
      <trkpt lat="44.10852" lon="0.58596">
        <ele>118.2</ele>
        <time>2021-10-21T13:41:28.027Z</time>
      </trkpt>
      <trkpt lat="44.10846" lon="0.58579">
        <ele>118.5</ele>
        <time>2021-10-21T13:41:40.027Z</time>
      </trkpt>
      <trkpt lat="44.10843" lon="0.58574">
        <ele>118.5</ele>
        <time>2021-10-21T13:41:44.027Z</time>
      </trkpt>
      <trkpt lat="44.10824" lon="0.58564">
        <ele>118.8</ele>
        <time>2021-10-21T13:42:00.027Z</time>
      </trkpt>
      <trkpt lat="44.10821" lon="0.58559">
        <ele>118.7</ele>
        <time>2021-10-21T13:42:04.027Z</time>
      </trkpt>
      <trkpt lat="44.10817" lon="0.58545">
        <ele>118.5</ele>
        <time>2021-10-21T13:42:12.027Z</time>
      </trkpt>
      <trkpt lat="44.10811" lon="0.58506">
        <ele>117.7</ele>
        <time>2021-10-21T13:42:36.027Z</time>
      </trkpt>
      <trkpt lat="44.10804" lon="0.58496">
        <ele>117.7</ele>
        <time>2021-10-21T13:42:44.027Z</time>
      </trkpt>
      <trkpt lat="44.10787" lon="0.58492">
        <ele>118.1</ele>
        <time>2021-10-21T13:42:56.027Z</time>
      </trkpt>
      <trkpt lat="44.10783" lon="0.58489">
        <ele>118.2</ele>
        <time>2021-10-21T13:43:00.027Z</time>
      </trkpt>
      <trkpt lat="44.10779" lon="0.58483">
        <ele>118.3</ele>
        <time>2021-10-21T13:43:04.027Z</time>
      </trkpt>
      <trkpt lat="44.10777" lon="0.58477">
        <ele>118.3</ele>
        <time>2021-10-21T13:43:08.027Z</time>
      </trkpt>
      <trkpt lat="44.10774" lon="0.58471">
        <ele>118.5</ele>
        <time>2021-10-21T13:43:12.027Z</time>
      </trkpt>
      <trkpt lat="44.10763" lon="0.58461">
        <ele>118.9</ele>
        <time>2021-10-21T13:43:26.027Z</time>
      </trkpt>
      <trkpt lat="44.10731" lon="0.58479">
        <ele>120.1</ele>
        <time>2021-10-21T13:43:58.027Z</time>
      </trkpt>
      <trkpt lat="44.10674" lon="0.58509">
        <ele>122.8</ele>
        <time>2021-10-21T13:44:50.027Z</time>
      </trkpt>
      <trkpt lat="44.10641" lon="0.58533">
        <ele>125.1</ele>
        <time>2021-10-21T13:45:23.027Z</time>
      </trkpt>
      <trkpt lat="44.10635" lon="0.58541">
        <ele>125.7</ele>
        <time>2021-10-21T13:45:31.027Z</time>
      </trkpt>
      <trkpt lat="44.10627" lon="0.58562">
        <ele>127</ele>
        <time>2021-10-21T13:45:47.027Z</time>
      </trkpt>
      <trkpt lat="44.10624" lon="0.58599">
        <ele>128.7</ele>
        <time>2021-10-21T13:46:11.027Z</time>
      </trkpt>
      <trkpt lat="44.1062" lon="0.58625">
        <ele>130.1</ele>
        <time>2021-10-21T13:46:27.027Z</time>
      </trkpt>
      <trkpt lat="44.10605" lon="0.58659">
        <ele>132.4</ele>
        <time>2021-10-21T13:46:51.027Z</time>
      </trkpt>
      <trkpt lat="44.10601" lon="0.5867">
        <ele>133.1</ele>
        <time>2021-10-21T13:46:59.027Z</time>
      </trkpt>
      <trkpt lat="44.10596" lon="0.5868">
        <ele>133.8</ele>
        <time>2021-10-21T13:47:07.027Z</time>
      </trkpt>
      <trkpt lat="44.10593" lon="0.5869">
        <ele>134.5</ele>
        <time>2021-10-21T13:47:15.027Z</time>
      </trkpt>
      <trkpt lat="44.10585" lon="0.587">
        <ele>135.5</ele>
        <time>2021-10-21T13:47:27.027Z</time>
      </trkpt>
      <trkpt lat="44.1058" lon="0.58701">
        <ele>135.8</ele>
        <time>2021-10-21T13:47:31.027Z</time>
      </trkpt>
      <trkpt lat="44.10572" lon="0.58699">
        <ele>136.2</ele>
        <time>2021-10-21T13:47:39.027Z</time>
      </trkpt>
      <trkpt lat="44.10545" lon="0.58684">
        <ele>137</ele>
        <time>2021-10-21T13:48:04.027Z</time>
      </trkpt>
      <trkpt lat="44.10528" lon="0.5867">
        <ele>137.5</ele>
        <time>2021-10-21T13:48:21.027Z</time>
      </trkpt>
      <trkpt lat="44.10511" lon="0.58656">
        <ele>138</ele>
        <time>2021-10-21T13:48:37.027Z</time>
      </trkpt>
      <trkpt lat="44.10496" lon="0.5864">
        <ele>138.1</ele>
        <time>2021-10-21T13:48:53.027Z</time>
      </trkpt>
      <trkpt lat="44.10484" lon="0.58623">
        <ele>137.9</ele>
        <time>2021-10-21T13:49:09.027Z</time>
      </trkpt>
      <trkpt lat="44.10442" lon="0.58578">
        <ele>137.3</ele>
        <time>2021-10-21T13:50:08.027Z</time>
      </trkpt>
      <trkpt lat="44.10434" lon="0.58573">
        <ele>137.5</ele>
        <time>2021-10-21T13:50:16.027Z</time>
      </trkpt>
      <trkpt lat="44.1043" lon="0.58572">
        <ele>137.6</ele>
        <time>2021-10-21T13:50:20.027Z</time>
      </trkpt>
      <trkpt lat="44.10428" lon="0.58573">
        <ele>137.7</ele>
        <time>2021-10-21T13:50:24.027Z</time>
      </trkpt>
      <trkpt lat="44.10429" lon="0.58573">
        <ele>137.6</ele>
        <time>2021-10-21T13:50:28.027Z</time>
      </trkpt>
      <trkpt lat="44.10425" lon="0.58575">
        <ele>137.8</ele>
        <time>2021-10-21T13:50:30.031Z</time>
      </trkpt>
      <trkpt lat="44.10415" lon="0.58577">
        <ele>138</ele>
        <time>2021-10-21T13:50:38.031Z</time>
      </trkpt>
      <trkpt lat="44.1041" lon="0.58576">
        <ele>138.1</ele>
        <time>2021-10-21T13:50:42.031Z</time>
      </trkpt>
      <trkpt lat="44.10406" lon="0.58574">
        <ele>138.2</ele>
        <time>2021-10-21T13:50:46.031Z</time>
      </trkpt>
      <trkpt lat="44.1039" lon="0.58555">
        <ele>138.1</ele>
        <time>2021-10-21T13:51:02.031Z</time>
      </trkpt>
      <trkpt lat="44.10386" lon="0.58552">
        <ele>138</ele>
        <time>2021-10-21T13:51:06.031Z</time>
      </trkpt>
      <trkpt lat="44.10382" lon="0.58551">
        <ele>138</ele>
        <time>2021-10-21T13:51:10.031Z</time>
      </trkpt>
      <trkpt lat="44.10378" lon="0.58554">
        <ele>138.1</ele>
        <time>2021-10-21T13:51:14.031Z</time>
      </trkpt>
      <trkpt lat="44.10376" lon="0.58557">
        <ele>138.2</ele>
        <time>2021-10-21T13:51:18.031Z</time>
      </trkpt>
      <trkpt lat="44.10374" lon="0.58568">
        <ele>138.5</ele>
        <time>2021-10-21T13:51:26.031Z</time>
      </trkpt>
      <trkpt lat="44.10342" lon="0.58632">
        <ele>143.2</ele>
        <time>2021-10-21T13:52:22.031Z</time>
      </trkpt>
      <trkpt lat="44.10339" lon="0.58636">
        <ele>143.6</ele>
        <time>2021-10-21T13:52:26.031Z</time>
      </trkpt>
      <trkpt lat="44.10324" lon="0.5867">
        <ele>147.1</ele>
        <time>2021-10-21T13:52:50.031Z</time>
      </trkpt>
      <trkpt lat="44.1031" lon="0.58688">
        <ele>149.9</ele>
        <time>2021-10-21T13:53:06.031Z</time>
      </trkpt>
      <trkpt lat="44.10299" lon="0.58705">
        <ele>152.2</ele>
        <time>2021-10-21T13:53:22.031Z</time>
      </trkpt>
      <trkpt lat="44.10286" lon="0.58747">
        <ele>156.6</ele>
        <time>2021-10-21T13:53:54.031Z</time>
      </trkpt>
      <trkpt lat="44.10272" lon="0.58789">
        <ele>160.1</ele>
        <time>2021-10-21T13:54:26.031Z</time>
      </trkpt>
      <trkpt lat="44.1025" lon="0.58821">
        <ele>163.3</ele>
        <time>2021-10-21T13:54:58.031Z</time>
      </trkpt>
      <trkpt lat="44.10234" lon="0.58855">
        <ele>166.7</ele>
        <time>2021-10-21T13:55:30.031Z</time>
      </trkpt>
      <trkpt lat="44.10228" lon="0.58874">
        <ele>168.7</ele>
        <time>2021-10-21T13:55:46.031Z</time>
      </trkpt>
      <trkpt lat="44.10222" lon="0.58894">
        <ele>170.9</ele>
        <time>2021-10-21T13:56:02.031Z</time>
      </trkpt>
      <trkpt lat="44.10213" lon="0.58924">
        <ele>173.9</ele>
        <time>2021-10-21T13:56:26.031Z</time>
      </trkpt>
      <trkpt lat="44.10194" lon="0.58963">
        <ele>176.7</ele>
        <time>2021-10-21T13:57:06.031Z</time>
      </trkpt>
      <trkpt lat="44.10194" lon="0.58971">
        <ele>177</ele>
        <time>2021-10-21T13:57:14.047Z</time>
      </trkpt>
      <trkpt lat="44.10192" lon="0.58974">
        <ele>177.3</ele>
        <time>2021-10-21T13:57:22.047Z</time>
      </trkpt>
      <trkpt lat="44.10185" lon="0.58973">
        <ele>178</ele>
        <time>2021-10-21T13:57:38.083Z</time>
      </trkpt>
      <trkpt lat="44.10182" lon="0.58975">
        <ele>178.3</ele>
        <time>2021-10-21T13:57:42.083Z</time>
      </trkpt>
      <trkpt lat="44.10171" lon="0.58975">
        <ele>179.4</ele>
        <time>2021-10-21T13:57:54.083Z</time>
      </trkpt>
      <trkpt lat="44.10153" lon="0.58974">
        <ele>179.9</ele>
        <time>2021-10-21T13:58:10.083Z</time>
      </trkpt>
      <trkpt lat="44.10136" lon="0.5897">
        <ele>179.8</ele>
        <time>2021-10-21T13:58:26.083Z</time>
      </trkpt>
      <trkpt lat="44.10132" lon="0.5897">
        <ele>179.9</ele>
        <time>2021-10-21T13:58:30.083Z</time>
      </trkpt>
      <trkpt lat="44.10113" lon="0.58978">
        <ele>180.3</ele>
        <time>2021-10-21T13:58:46.083Z</time>
      </trkpt>
      <trkpt lat="44.10067" lon="0.59024">
        <ele>178.9</ele>
        <time>2021-10-21T13:59:34.083Z</time>
      </trkpt>
      <trkpt lat="44.10049" lon="0.59044">
        <ele>177.8</ele>
        <time>2021-10-21T13:59:50.083Z</time>
      </trkpt>
      <trkpt lat="44.10031" lon="0.59063">
        <ele>177.5</ele>
        <time>2021-10-21T14:00:06.083Z</time>
      </trkpt>
      <trkpt lat="44.10014" lon="0.59082">
        <ele>178.1</ele>
        <time>2021-10-21T14:00:22.083Z</time>
      </trkpt>
      <trkpt lat="44.1" lon="0.59096">
        <ele>179.8</ele>
        <time>2021-10-21T14:00:38.083Z</time>
      </trkpt>
      <trkpt lat="44.09996" lon="0.59098">
        <ele>179.8</ele>
        <time>2021-10-21T14:00:42.083Z</time>
      </trkpt>
      <trkpt lat="44.09977" lon="0.59101">
        <ele>178.7</ele>
        <time>2021-10-21T14:00:54.083Z</time>
      </trkpt>
      <trkpt lat="44.09965" lon="0.59099">
        <ele>177.5</ele>
        <time>2021-10-21T14:01:02.083Z</time>
      </trkpt>
      <trkpt lat="44.0996" lon="0.59097">
        <ele>176.8</ele>
        <time>2021-10-21T14:01:06.083Z</time>
      </trkpt>
      <trkpt lat="44.09949" lon="0.59095">
        <ele>175.7</ele>
        <time>2021-10-21T14:01:14.083Z</time>
      </trkpt>
      <trkpt lat="44.0994" lon="0.59098">
        <ele>175.3</ele>
        <time>2021-10-21T14:01:22.083Z</time>
      </trkpt>
      <trkpt lat="44.09932" lon="0.59103">
        <ele>175.2</ele>
        <time>2021-10-21T14:01:30.083Z</time>
      </trkpt>
      <trkpt lat="44.09904" lon="0.59144">
        <ele>177.1</ele>
        <time>2021-10-21T14:02:02.083Z</time>
      </trkpt>
      <trkpt lat="44.09888" lon="0.59162">
        <ele>177.6</ele>
        <time>2021-10-21T14:02:18.083Z</time>
      </trkpt>
      <trkpt lat="44.09868" lon="0.59173">
        <ele>176.5</ele>
        <time>2021-10-21T14:02:34.083Z</time>
      </trkpt>
      <trkpt lat="44.09859" lon="0.59181">
        <ele>176</ele>
        <time>2021-10-21T14:02:42.083Z</time>
      </trkpt>
      <trkpt lat="44.09847" lon="0.59204">
        <ele>175.1</ele>
        <time>2021-10-21T14:02:58.083Z</time>
      </trkpt>
      <trkpt lat="44.09831" lon="0.59225">
        <ele>173.9</ele>
        <time>2021-10-21T14:03:18.083Z</time>
      </trkpt>
      <trkpt lat="44.0983" lon="0.59223">
        <ele>173.9</ele>
        <time>2021-10-21T14:03:23.083Z</time>
      </trkpt>
      <trkpt lat="44.09816" lon="0.59224">
        <ele>173.4</ele>
        <time>2021-10-21T14:03:39.083Z</time>
      </trkpt>
      <trkpt lat="44.09794" lon="0.59243">
        <ele>172.6</ele>
        <time>2021-10-21T14:03:59.099Z</time>
      </trkpt>
      <trkpt lat="44.0978" lon="0.59247">
        <ele>172.1</ele>
        <time>2021-10-21T14:04:07.099Z</time>
      </trkpt>
      <trkpt lat="44.09769" lon="0.59246">
        <ele>171.7</ele>
        <time>2021-10-21T14:04:15.099Z</time>
      </trkpt>
      <trkpt lat="44.09751" lon="0.59238">
        <ele>171</ele>
        <time>2021-10-21T14:04:29.099Z</time>
      </trkpt>
      <trkpt lat="44.0975" lon="0.59236">
        <ele>171</ele>
        <time>2021-10-21T14:04:31.099Z</time>
      </trkpt>
      <trkpt lat="44.09749" lon="0.5923">
        <ele>170.9</ele>
        <time>2021-10-21T14:04:39.099Z</time>
      </trkpt>
      <trkpt lat="44.09748" lon="0.59234">
        <ele>170.8</ele>
        <time>2021-10-21T14:04:44.099Z</time>
      </trkpt>
      <trkpt lat="44.09746" lon="0.59236">
        <ele>170.4</ele>
        <time>2021-10-21T14:04:46.099Z</time>
      </trkpt>
      <trkpt lat="44.09722" lon="0.59239">
        <ele>167.3</ele>
        <time>2021-10-21T14:05:02.099Z</time>
      </trkpt>
      <trkpt lat="44.09701" lon="0.59245">
        <ele>164.5</ele>
        <time>2021-10-21T14:05:18.099Z</time>
      </trkpt>
      <trkpt lat="44.09663" lon="0.59258">
        <ele>159.7</ele>
        <time>2021-10-21T14:05:38.099Z</time>
      </trkpt>
      <trkpt lat="44.09646" lon="0.59267">
        <ele>157.6</ele>
        <time>2021-10-21T14:05:46.099Z</time>
      </trkpt>
      <trkpt lat="44.09626" lon="0.59272">
        <ele>155</ele>
        <time>2021-10-21T14:05:58.099Z</time>
      </trkpt>
      <trkpt lat="44.09622" lon="0.59271">
        <ele>154.5</ele>
        <time>2021-10-21T14:06:00.099Z</time>
      </trkpt>
      <trkpt lat="44.0962" lon="0.59269">
        <ele>154.1</ele>
        <time>2021-10-21T14:06:02.099Z</time>
      </trkpt>
      <trkpt lat="44.09618" lon="0.59248">
        <ele>153.1</ele>
        <time>2021-10-21T14:06:18.099Z</time>
      </trkpt>
      <trkpt lat="44.09608" lon="0.59194">
        <ele>152.5</ele>
        <time>2021-10-21T14:06:50.099Z</time>
      </trkpt>
      <trkpt lat="44.09606" lon="0.59164">
        <ele>152.8</ele>
        <time>2021-10-21T14:07:06.099Z</time>
      </trkpt>
      <trkpt lat="44.09606" lon="0.59135">
        <ele>153.5</ele>
        <time>2021-10-21T14:07:22.099Z</time>
      </trkpt>
      <trkpt lat="44.09609" lon="0.59105">
        <ele>154.5</ele>
        <time>2021-10-21T14:07:38.099Z</time>
      </trkpt>
      <trkpt lat="44.09611" lon="0.59045">
        <ele>156.2</ele>
        <time>2021-10-21T14:08:10.099Z</time>
      </trkpt>
      <trkpt lat="44.09618" lon="0.58971">
        <ele>158.5</ele>
        <time>2021-10-21T14:08:50.099Z</time>
      </trkpt>
      <trkpt lat="44.09628" lon="0.58942">
        <ele>159.3</ele>
        <time>2021-10-21T14:09:06.099Z</time>
      </trkpt>
      <trkpt lat="44.09638" lon="0.58917">
        <ele>159.7</ele>
        <time>2021-10-21T14:09:22.099Z</time>
      </trkpt>
      <trkpt lat="44.09664" lon="0.58866">
        <ele>160.6</ele>
        <time>2021-10-21T14:09:54.099Z</time>
      </trkpt>
      <trkpt lat="44.09677" lon="0.58844">
        <ele>160.6</ele>
        <time>2021-10-21T14:10:10.099Z</time>
      </trkpt>
      <trkpt lat="44.09692" lon="0.58822">
        <ele>160</ele>
        <time>2021-10-21T14:10:26.099Z</time>
      </trkpt>
      <trkpt lat="44.09703" lon="0.58808">
        <ele>159.5</ele>
        <time>2021-10-21T14:10:38.099Z</time>
      </trkpt>
      <trkpt lat="44.09722" lon="0.58794">
        <ele>158.9</ele>
        <time>2021-10-21T14:10:54.099Z</time>
      </trkpt>
      <trkpt lat="44.09761" lon="0.58767">
        <ele>157.4</ele>
        <time>2021-10-21T14:11:26.099Z</time>
      </trkpt>
      <trkpt lat="44.09792" lon="0.58747">
        <ele>155.5</ele>
        <time>2021-10-21T14:11:54.099Z</time>
      </trkpt>
      <trkpt lat="44.09799" lon="0.5874">
        <ele>155</ele>
        <time>2021-10-21T14:12:02.099Z</time>
      </trkpt>
      <trkpt lat="44.09854" lon="0.58704">
        <ele>151.4</ele>
        <time>2021-10-21T14:12:50.099Z</time>
      </trkpt>
      <trkpt lat="44.09929" lon="0.5865">
        <ele>146.1</ele>
        <time>2021-10-21T14:13:54.099Z</time>
      </trkpt>
      <trkpt lat="44.09937" lon="0.58642">
        <ele>146.1</ele>
        <time>2021-10-21T14:14:02.099Z</time>
      </trkpt>
      <trkpt lat="44.09955" lon="0.58628">
        <ele>145.8</ele>
        <time>2021-10-21T14:14:18.099Z</time>
      </trkpt>
      <trkpt lat="44.09962" lon="0.58622">
        <ele>145.7</ele>
        <time>2021-10-21T14:14:26.099Z</time>
      </trkpt>
      <trkpt lat="44.09978" lon="0.586">
        <ele>145</ele>
        <time>2021-10-21T14:14:42.099Z</time>
      </trkpt>
      <trkpt lat="44.09989" lon="0.5858">
        <ele>144.5</ele>
        <time>2021-10-21T14:14:54.099Z</time>
      </trkpt>
      <trkpt lat="44.10001" lon="0.58542">
        <ele>145.4</ele>
        <time>2021-10-21T14:15:18.099Z</time>
      </trkpt>
      <trkpt lat="44.10012" lon="0.58518">
        <ele>145.9</ele>
        <time>2021-10-21T14:15:34.099Z</time>
      </trkpt>
      <trkpt lat="44.10019" lon="0.58492">
        <ele>146.1</ele>
        <time>2021-10-21T14:15:50.099Z</time>
      </trkpt>
      <trkpt lat="44.10023" lon="0.58471">
        <ele>146</ele>
        <time>2021-10-21T14:16:02.099Z</time>
      </trkpt>
      <trkpt lat="44.10032" lon="0.58444">
        <ele>145.4</ele>
        <time>2021-10-21T14:16:18.099Z</time>
      </trkpt>
      <trkpt lat="44.10035" lon="0.5843">
        <ele>145.1</ele>
        <time>2021-10-21T14:16:26.099Z</time>
      </trkpt>
      <trkpt lat="44.1004" lon="0.58416">
        <ele>144.6</ele>
        <time>2021-10-21T14:16:34.099Z</time>
      </trkpt>
      <trkpt lat="44.10047" lon="0.58388">
        <ele>143.8</ele>
        <time>2021-10-21T14:16:50.099Z</time>
      </trkpt>
      <trkpt lat="44.10073" lon="0.58303">
        <ele>143.8</ele>
        <time>2021-10-21T14:17:46.099Z</time>
      </trkpt>
      <trkpt lat="44.1009" lon="0.58273">
        <ele>144.6</ele>
        <time>2021-10-21T14:18:10.111Z</time>
      </trkpt>
      <trkpt lat="44.10121" lon="0.58233">
        <ele>144.2</ele>
        <time>2021-10-21T14:18:38.111Z</time>
      </trkpt>
      <trkpt lat="44.1015" lon="0.58185">
        <ele>142.3</ele>
        <time>2021-10-21T14:19:10.111Z</time>
      </trkpt>
      <trkpt lat="44.10177" lon="0.58137">
        <ele>139.7</ele>
        <time>2021-10-21T14:19:42.111Z</time>
      </trkpt>
      <trkpt lat="44.10202" lon="0.58088">
        <ele>136.2</ele>
        <time>2021-10-21T14:20:14.111Z</time>
      </trkpt>
      <trkpt lat="44.10214" lon="0.58063">
        <ele>134.4</ele>
        <time>2021-10-21T14:20:30.111Z</time>
      </trkpt>
      <trkpt lat="44.10228" lon="0.58036">
        <ele>132.3</ele>
        <time>2021-10-21T14:20:46.111Z</time>
      </trkpt>
      <trkpt lat="44.10243" lon="0.58012">
        <ele>130.1</ele>
        <time>2021-10-21T14:21:02.111Z</time>
      </trkpt>
      <trkpt lat="44.10254" lon="0.58">
        <ele>128.9</ele>
        <time>2021-10-21T14:21:12.111Z</time>
      </trkpt>
      <trkpt lat="44.10263" lon="0.57993">
        <ele>128.7</ele>
        <time>2021-10-21T14:21:20.111Z</time>
      </trkpt>
      <trkpt lat="44.10284" lon="0.57982">
        <ele>128.1</ele>
        <time>2021-10-21T14:21:38.111Z</time>
      </trkpt>
      <trkpt lat="44.10285" lon="0.57978">
        <ele>128</ele>
        <time>2021-10-21T14:21:41.111Z</time>
      </trkpt>
      <trkpt lat="44.10282" lon="0.57974">
        <ele>127.9</ele>
        <time>2021-10-21T14:21:45.111Z</time>
      </trkpt>
      <trkpt lat="44.10245" lon="0.57945">
        <ele>128.7</ele>
        <time>2021-10-21T14:22:19.111Z</time>
      </trkpt>
      <trkpt lat="44.10166" lon="0.57879">
        <ele>131.6</ele>
        <time>2021-10-21T14:23:32.111Z</time>
      </trkpt>
      <trkpt lat="44.1013" lon="0.57846">
        <ele>130.2</ele>
        <time>2021-10-21T14:24:06.111Z</time>
      </trkpt>
      <trkpt lat="44.1012" lon="0.57839">
        <ele>129.8</ele>
        <time>2021-10-21T14:24:15.111Z</time>
      </trkpt>
      <trkpt lat="44.10115" lon="0.57832">
        <ele>129.3</ele>
        <time>2021-10-21T14:24:23.111Z</time>
      </trkpt>
      <trkpt lat="44.10123" lon="0.57819">
        <ele>128.9</ele>
        <time>2021-10-21T14:24:33.111Z</time>
      </trkpt>
      <trkpt lat="44.10136" lon="0.57796">
        <ele>127.9</ele>
        <time>2021-10-21T14:24:51.111Z</time>
      </trkpt>
      <trkpt lat="44.10143" lon="0.57785">
        <ele>127.3</ele>
        <time>2021-10-21T14:25:02.111Z</time>
      </trkpt>
      <trkpt lat="44.10156" lon="0.57757">
        <ele>125.6</ele>
        <time>2021-10-21T14:25:20.111Z</time>
      </trkpt>
      <trkpt lat="44.10177" lon="0.57709">
        <ele>123.4</ele>
        <time>2021-10-21T14:25:51.111Z</time>
      </trkpt>
      <trkpt lat="44.10184" lon="0.57695">
        <ele>122.9</ele>
        <time>2021-10-21T14:26:10.119Z</time>
      </trkpt>
      <trkpt lat="44.10193" lon="0.57683">
        <ele>122.5</ele>
        <time>2021-10-21T14:26:20.119Z</time>
      </trkpt>
      <trkpt lat="44.10212" lon="0.57668">
        <ele>122</ele>
        <time>2021-10-21T14:26:38.119Z</time>
      </trkpt>
      <trkpt lat="44.10238" lon="0.57644">
        <ele>122.8</ele>
        <time>2021-10-21T14:27:04.119Z</time>
      </trkpt>
      <trkpt lat="44.10255" lon="0.57631">
        <ele>123.4</ele>
        <time>2021-10-21T14:27:22.119Z</time>
      </trkpt>
      <trkpt lat="44.10317" lon="0.57578">
        <ele>127.7</ele>
        <time>2021-10-21T14:28:27.119Z</time>
      </trkpt>
      <trkpt lat="44.10327" lon="0.57571">
        <ele>128.4</ele>
        <time>2021-10-21T14:28:36.119Z</time>
      </trkpt>
      <trkpt lat="44.10341" lon="0.57555">
        <ele>129.9</ele>
        <time>2021-10-21T14:28:53.119Z</time>
      </trkpt>
      <trkpt lat="44.1035" lon="0.57549">
        <ele>130.8</ele>
        <time>2021-10-21T14:29:03.119Z</time>
      </trkpt>
      <trkpt lat="44.10371" lon="0.57529">
        <ele>132.9</ele>
        <time>2021-10-21T14:29:27.119Z</time>
      </trkpt>
      <trkpt lat="44.10375" lon="0.57523">
        <ele>133.3</ele>
        <time>2021-10-21T14:29:33.119Z</time>
      </trkpt>
      <trkpt lat="44.10406" lon="0.5749">
        <ele>135.9</ele>
        <time>2021-10-21T14:30:11.119Z</time>
      </trkpt>
      <trkpt lat="44.10439" lon="0.57457">
        <ele>139.7</ele>
        <time>2021-10-21T14:30:51.119Z</time>
      </trkpt>
      <trkpt lat="44.10445" lon="0.57451">
        <ele>140.4</ele>
        <time>2021-10-21T14:30:59.119Z</time>
      </trkpt>
      <trkpt lat="44.10468" lon="0.5743">
        <ele>143</ele>
        <time>2021-10-21T14:31:28.119Z</time>
      </trkpt>
      <trkpt lat="44.10485" lon="0.57419">
        <ele>144.7</ele>
        <time>2021-10-21T14:31:46.119Z</time>
      </trkpt>
      <trkpt lat="44.10521" lon="0.57388">
        <ele>149.1</ele>
        <time>2021-10-21T14:32:33.119Z</time>
      </trkpt>
      <trkpt lat="44.10522" lon="0.57386">
        <ele>149.3</ele>
        <time>2021-10-21T14:32:49.127Z</time>
      </trkpt>
      <trkpt lat="44.10525" lon="0.57385">
        <ele>149.7</ele>
        <time>2021-10-21T14:32:57.022Z</time>
      </trkpt>
      <trkpt lat="44.10536" lon="0.57372">
        <ele>151.5</ele>
        <time>2021-10-21T14:33:13.034Z</time>
      </trkpt>
      <trkpt lat="44.10543" lon="0.57366">
        <ele>152.6</ele>
        <time>2021-10-21T14:33:21.034Z</time>
      </trkpt>
      <trkpt lat="44.10556" lon="0.57351">
        <ele>154.7</ele>
        <time>2021-10-21T14:33:37.034Z</time>
      </trkpt>
      <trkpt lat="44.10567" lon="0.57334">
        <ele>156.7</ele>
        <time>2021-10-21T14:33:53.034Z</time>
      </trkpt>
      <trkpt lat="44.10573" lon="0.57326">
        <ele>157.6</ele>
        <time>2021-10-21T14:34:01.034Z</time>
      </trkpt>
      <trkpt lat="44.10579" lon="0.57316">
        <ele>158.5</ele>
        <time>2021-10-21T14:34:09.034Z</time>
      </trkpt>
      <trkpt lat="44.10582" lon="0.57292">
        <ele>159.3</ele>
        <time>2021-10-21T14:34:25.034Z</time>
      </trkpt>
      <trkpt lat="44.10582" lon="0.57278">
        <ele>159.5</ele>
        <time>2021-10-21T14:34:33.034Z</time>
      </trkpt>
      <trkpt lat="44.10584" lon="0.57272">
        <ele>159.8</ele>
        <time>2021-10-21T14:34:37.034Z</time>
      </trkpt>
      <trkpt lat="44.10585" lon="0.5727">
        <ele>160</ele>
        <time>2021-10-21T14:34:39.034Z</time>
      </trkpt>
      <trkpt lat="44.10587" lon="0.5727">
        <ele>160.3</ele>
        <time>2021-10-21T14:34:41.034Z</time>
      </trkpt>
      <trkpt lat="44.10598" lon="0.57286">
        <ele>161.6</ele>
        <time>2021-10-21T14:34:53.034Z</time>
      </trkpt>
      <trkpt lat="44.10604" lon="0.573">
        <ele>162.3</ele>
        <time>2021-10-21T14:35:05.034Z</time>
      </trkpt>
      <trkpt lat="44.10609" lon="0.57312">
        <ele>162.9</ele>
        <time>2021-10-21T14:35:17.034Z</time>
      </trkpt>
    </trkseg>
  </trk>
</gpx>